sensor_id;sensor_type;location;lat;lon;timestamp;P1;durP1;ratioP1;P2;durP2;ratioP2
13327;SDS011;6733;51.044;3.746;2023-03-14T00:01:19;8.97;;;2.60;;
13327;SDS011;6733;51.044;3.746;2023-03-14T00:03:49;4.07;;;2.03;;
13327;SDS011;6733;51.044;3.746;2023-03-14T00:06:16;5.40;;;2.20;;
13327;SDS011;6733;51.044;3.746;2023-03-14T00:08:43;5.93;;;2.30;;
13327;SDS011;6733;51.044;3.746;2023-03-14T00:11:11;5.53;;;2.33;;
13327;SDS011;6733;51.044;3.746;2023-03-14T00:13:43;4.57;;;1.93;;
13327;SDS011;6733;51.044;3.746;2023-03-14T00:16:12;4.97;;;2.03;;
13327;SDS011;6733;51.044;3.746;2023-03-14T00:18:38;7.83;;;2.20;;
13327;SDS011;6733;51.044;3.746;2023-03-14T00:21:05;6.13;;;2.20;;
13327;SDS011;6733;51.044;3.746;2023-03-14T00:23:34;7.87;;;2.37;;
13327;SDS011;6733;51.044;3.746;2023-03-14T00:26:02;5.47;;;2.10;;
13327;SDS011;6733;51.044;3.746;2023-03-14T00:28:50;5.50;;;2.13;;
13327;SDS011;6733;51.044;3.746;2023-03-14T00:31:17;6.73;;;2.40;;
13327;SDS011;6733;51.044;3.746;2023-03-14T00:33:44;6.27;;;2.47;;
13327;SDS011;6733;51.044;3.746;2023-03-14T00:36:12;7.33;;;2.47;;
13327;SDS011;6733;51.044;3.746;2023-03-14T00:38:40;6.87;;;2.37;;
13327;SDS011;6733;51.044;3.746;2023-03-14T00:41:08;4.30;;;2.23;;
13327;SDS011;6733;51.044;3.746;2023-03-14T00:43:36;7.67;;;2.53;;
13327;SDS011;6733;51.044;3.746;2023-03-14T00:46:03;10.30;;;2.80;;
13327;SDS011;6733;51.044;3.746;2023-03-14T00:48:30;8.07;;;2.80;;
13327;SDS011;6733;51.044;3.746;2023-03-14T00:50:56;10.20;;;3.03;;
13327;SDS011;6733;51.044;3.746;2023-03-14T00:53:22;8.23;;;2.43;;
13327;SDS011;6733;51.044;3.746;2023-03-14T00:55:48;13.47;;;3.50;;
13327;SDS011;6733;51.044;3.746;2023-03-14T00:58:15;12.33;;;3.03;;
13327;SDS011;6733;51.044;3.746;2023-03-14T01:00:43;10.43;;;3.03;;
13327;SDS011;6733;51.044;3.746;2023-03-14T01:03:10;11.67;;;2.83;;
13327;SDS011;6733;51.044;3.746;2023-03-14T01:05:38;8.90;;;3.50;;
13327;SDS011;6733;51.044;3.746;2023-03-14T01:08:04;10.93;;;3.03;;
13327;SDS011;6733;51.044;3.746;2023-03-14T01:10:32;8.73;;;3.37;;
13327;SDS011;6733;51.044;3.746;2023-03-14T01:12:59;11.83;;;3.20;;
13327;SDS011;6733;51.044;3.746;2023-03-14T01:15:25;9.40;;;3.10;;
13327;SDS011;6733;51.044;3.746;2023-03-14T01:17:51;12.57;;;3.57;;
13327;SDS011;6733;51.044;3.746;2023-03-14T01:20:17;12.90;;;3.30;;
13327;SDS011;6733;51.044;3.746;2023-03-14T01:22:43;9.90;;;3.40;;
13327;SDS011;6733;51.044;3.746;2023-03-14T01:25:11;7.67;;;2.90;;
13327;SDS011;6733;51.044;3.746;2023-03-14T01:27:39;11.30;;;3.60;;
13327;SDS011;6733;51.044;3.746;2023-03-14T01:30:06;11.07;;;3.20;;
13327;SDS011;6733;51.044;3.746;2023-03-14T01:32:33;10.77;;;3.50;;
13327;SDS011;6733;51.044;3.746;2023-03-14T01:35:00;10.80;;;3.17;;
13327;SDS011;6733;51.044;3.746;2023-03-14T01:37:26;7.23;;;2.90;;
13327;SDS011;6733;51.044;3.746;2023-03-14T01:39:52;10.83;;;2.83;;
13327;SDS011;6733;51.044;3.746;2023-03-14T01:42:18;7.80;;;2.67;;
13327;SDS011;6733;51.044;3.746;2023-03-14T01:44:48;7.47;;;2.70;;
13327;SDS011;6733;51.044;3.746;2023-03-14T01:47:19;7.60;;;3.10;;
13327;SDS011;6733;51.044;3.746;2023-03-14T01:49:46;8.17;;;2.97;;
13327;SDS011;6733;51.044;3.746;2023-03-14T01:52:18;9.37;;;2.87;;
13327;SDS011;6733;51.044;3.746;2023-03-14T01:55:21;8.47;;;2.90;;
13327;SDS011;6733;51.044;3.746;2023-03-14T01:57:54;7.43;;;2.70;;
13327;SDS011;6733;51.044;3.746;2023-03-14T02:00:24;8.53;;;2.90;;
13327;SDS011;6733;51.044;3.746;2023-03-14T02:02:52;9.10;;;3.33;;
13327;SDS011;6733;51.044;3.746;2023-03-14T02:05:22;7.23;;;2.70;;
13327;SDS011;6733;51.044;3.746;2023-03-14T02:07:58;9.07;;;2.80;;
13327;SDS011;6733;51.044;3.746;2023-03-14T02:10:27;7.17;;;2.60;;
13327;SDS011;6733;51.044;3.746;2023-03-14T02:12:57;8.97;;;2.67;;
13327;SDS011;6733;51.044;3.746;2023-03-14T02:15:27;6.33;;;2.20;;
13327;SDS011;6733;51.044;3.746;2023-03-14T02:17:53;4.77;;;2.00;;
13327;SDS011;6733;51.044;3.746;2023-03-14T02:20:42;6.27;;;2.10;;
13327;SDS011;6733;51.044;3.746;2023-03-14T02:23:11;5.17;;;1.70;;
13327;SDS011;6733;51.044;3.746;2023-03-14T02:28:11;5.87;;;2.17;;
13327;SDS011;6733;51.044;3.746;2023-03-14T02:30:38;4.27;;;1.70;;
13327;SDS011;6733;51.044;3.746;2023-03-14T02:33:30;5.27;;;2.00;;
13327;SDS011;6733;51.044;3.746;2023-03-14T02:36:21;3.67;;;1.50;;
13327;SDS011;6733;51.044;3.746;2023-03-14T02:38:53;3.33;;;1.50;;
13327;SDS011;6733;51.044;3.746;2023-03-14T02:41:30;3.63;;;1.63;;
13327;SDS011;6733;51.044;3.746;2023-03-14T02:43:57;4.47;;;2.17;;
13327;SDS011;6733;51.044;3.746;2023-03-14T02:46:23;3.73;;;1.83;;
13327;SDS011;6733;51.044;3.746;2023-03-14T02:48:53;5.50;;;2.20;;
13327;SDS011;6733;51.044;3.746;2023-03-14T02:51:28;4.67;;;1.73;;
13327;SDS011;6733;51.044;3.746;2023-03-14T02:53:54;4.23;;;1.93;;
13327;SDS011;6733;51.044;3.746;2023-03-14T02:56:21;4.10;;;2.00;;
13327;SDS011;6733;51.044;3.746;2023-03-14T02:58:47;7.53;;;2.67;;
13327;SDS011;6733;51.044;3.746;2023-03-14T03:01:13;7.37;;;1.97;;
13327;SDS011;6733;51.044;3.746;2023-03-14T03:03:39;6.53;;;2.37;;
13327;SDS011;6733;51.044;3.746;2023-03-14T03:06:06;6.23;;;2.67;;
13327;SDS011;6733;51.044;3.746;2023-03-14T03:08:32;8.53;;;2.50;;
13327;SDS011;6733;51.044;3.746;2023-03-14T03:10:59;4.77;;;2.30;;
13327;SDS011;6733;51.044;3.746;2023-03-14T03:13:25;5.53;;;2.57;;
13327;SDS011;6733;51.044;3.746;2023-03-14T03:15:52;6.60;;;2.10;;
13327;SDS011;6733;51.044;3.746;2023-03-14T03:18:18;6.43;;;2.37;;
13327;SDS011;6733;51.044;3.746;2023-03-14T03:20:45;4.97;;;2.10;;
13327;SDS011;6733;51.044;3.746;2023-03-14T03:23:11;4.37;;;2.10;;
13327;SDS011;6733;51.044;3.746;2023-03-14T03:25:38;6.23;;;2.63;;
13327;SDS011;6733;51.044;3.746;2023-03-14T03:28:04;7.57;;;2.17;;
13327;SDS011;6733;51.044;3.746;2023-03-14T03:30:36;5.67;;;2.60;;
13327;SDS011;6733;51.044;3.746;2023-03-14T03:33:06;4.97;;;3.07;;
13327;SDS011;6733;51.044;3.746;2023-03-14T03:35:32;7.40;;;3.07;;
13327;SDS011;6733;51.044;3.746;2023-03-14T03:37:58;6.17;;;2.20;;
13327;SDS011;6733;51.044;3.746;2023-03-14T03:40:24;4.50;;;2.20;;
13327;SDS011;6733;51.044;3.746;2023-03-14T03:42:50;5.60;;;2.77;;
13327;SDS011;6733;51.044;3.746;2023-03-14T03:45:17;10.33;;;2.53;;
13327;SDS011;6733;51.044;3.746;2023-03-14T03:47:43;10.87;;;3.10;;
13327;SDS011;6733;51.044;3.746;2023-03-14T03:50:09;5.17;;;2.50;;
13327;SDS011;6733;51.044;3.746;2023-03-14T03:52:35;4.50;;;2.80;;
13327;SDS011;6733;51.044;3.746;2023-03-14T03:55:02;6.17;;;2.77;;
13327;SDS011;6733;51.044;3.746;2023-03-14T03:57:28;7.93;;;3.00;;
13327;SDS011;6733;51.044;3.746;2023-03-14T03:59:54;7.70;;;3.37;;
13327;SDS011;6733;51.044;3.746;2023-03-14T04:02:20;5.77;;;2.83;;
13327;SDS011;6733;51.044;3.746;2023-03-14T04:04:46;6.63;;;2.97;;
13327;SDS011;6733;51.044;3.746;2023-03-14T04:07:12;8.20;;;3.37;;
13327;SDS011;6733;51.044;3.746;2023-03-14T04:09:39;6.80;;;3.27;;
13327;SDS011;6733;51.044;3.746;2023-03-14T04:12:05;6.77;;;3.07;;
13327;SDS011;6733;51.044;3.746;2023-03-14T04:14:31;7.47;;;3.47;;
13327;SDS011;6733;51.044;3.746;2023-03-14T04:16:58;6.50;;;3.70;;
13327;SDS011;6733;51.044;3.746;2023-03-14T04:19:24;7.63;;;3.90;;
13327;SDS011;6733;51.044;3.746;2023-03-14T04:21:50;6.33;;;4.10;;
13327;SDS011;6733;51.044;3.746;2023-03-14T04:24:16;5.57;;;3.90;;
13327;SDS011;6733;51.044;3.746;2023-03-14T04:26:42;8.20;;;3.90;;
13327;SDS011;6733;51.044;3.746;2023-03-14T04:29:08;6.03;;;3.97;;
13327;SDS011;6733;51.044;3.746;2023-03-14T04:31:35;9.40;;;4.30;;
13327;SDS011;6733;51.044;3.746;2023-03-14T04:34:01;6.07;;;4.57;;
13327;SDS011;6733;51.044;3.746;2023-03-14T04:36:27;9.10;;;4.80;;
13327;SDS011;6733;51.044;3.746;2023-03-14T04:38:53;7.97;;;4.63;;
13327;SDS011;6733;51.044;3.746;2023-03-14T04:41:19;8.73;;;4.27;;
13327;SDS011;6733;51.044;3.746;2023-03-14T04:43:45;7.07;;;4.07;;
13327;SDS011;6733;51.044;3.746;2023-03-14T04:46:11;6.40;;;3.63;;
13327;SDS011;6733;51.044;3.746;2023-03-14T04:48:37;7.67;;;3.23;;
13327;SDS011;6733;51.044;3.746;2023-03-14T04:51:04;4.70;;;2.93;;
13327;SDS011;6733;51.044;3.746;2023-03-14T04:53:30;3.20;;;2.60;;
13327;SDS011;6733;51.044;3.746;2023-03-14T04:55:56;6.13;;;2.77;;
13327;SDS011;6733;51.044;3.746;2023-03-14T04:58:23;3.07;;;2.23;;
13327;SDS011;6733;51.044;3.746;2023-03-14T05:00:49;4.53;;;2.33;;
13327;SDS011;6733;51.044;3.746;2023-03-14T05:03:16;5.50;;;2.07;;
13327;SDS011;6733;51.044;3.746;2023-03-14T05:05:43;2.90;;;2.10;;
13327;SDS011;6733;51.044;3.746;2023-03-14T05:08:10;1.83;;;1.67;;
13327;SDS011;6733;51.044;3.746;2023-03-14T05:10:37;3.43;;;1.93;;
13327;SDS011;6733;51.044;3.746;2023-03-14T05:13:03;2.50;;;1.90;;
13327;SDS011;6733;51.044;3.746;2023-03-14T05:15:29;3.07;;;1.70;;
13327;SDS011;6733;51.044;3.746;2023-03-14T05:17:55;4.67;;;1.70;;
13327;SDS011;6733;51.044;3.746;2023-03-14T05:20:21;2.57;;;1.90;;
13327;SDS011;6733;51.044;3.746;2023-03-14T05:22:47;3.13;;;2.40;;
13327;SDS011;6733;51.044;3.746;2023-03-14T05:25:14;3.83;;;2.10;;
13327;SDS011;6733;51.044;3.746;2023-03-14T05:27:40;4.53;;;2.23;;
13327;SDS011;6733;51.044;3.746;2023-03-14T05:30:06;3.90;;;2.30;;
13327;SDS011;6733;51.044;3.746;2023-03-14T05:32:33;2.20;;;2.00;;
13327;SDS011;6733;51.044;3.746;2023-03-14T05:34:59;6.30;;;2.40;;
13327;SDS011;6733;51.044;3.746;2023-03-14T05:37:26;5.20;;;2.67;;
13327;SDS011;6733;51.044;3.746;2023-03-14T05:39:52;4.27;;;2.30;;
13327;SDS011;6733;51.044;3.746;2023-03-14T05:42:18;5.27;;;2.17;;
13327;SDS011;6733;51.044;3.746;2023-03-14T05:44:44;4.23;;;2.60;;
13327;SDS011;6733;51.044;3.746;2023-03-14T05:47:11;5.53;;;2.90;;
13327;SDS011;6733;51.044;3.746;2023-03-14T05:49:37;5.63;;;3.30;;
13327;SDS011;6733;51.044;3.746;2023-03-14T05:52:03;4.73;;;3.50;;
13327;SDS011;6733;51.044;3.746;2023-03-14T05:54:30;5.13;;;3.60;;
13327;SDS011;6733;51.044;3.746;2023-03-14T05:56:56;6.30;;;4.43;;
13327;SDS011;6733;51.044;3.746;2023-03-14T05:59:22;6.83;;;4.47;;
13327;SDS011;6733;51.044;3.746;2023-03-14T06:01:48;8.70;;;5.03;;
13327;SDS011;6733;51.044;3.746;2023-03-14T06:04:14;11.67;;;4.63;;
13327;SDS011;6733;51.044;3.746;2023-03-14T06:06:40;6.50;;;3.87;;
13327;SDS011;6733;51.044;3.746;2023-03-14T06:09:06;8.87;;;4.60;;
13327;SDS011;6733;51.044;3.746;2023-03-14T06:11:32;9.03;;;4.40;;
13327;SDS011;6733;51.044;3.746;2023-03-14T06:13:59;6.63;;;3.63;;
13327;SDS011;6733;51.044;3.746;2023-03-14T06:16:25;5.03;;;3.30;;
13327;SDS011;6733;51.044;3.746;2023-03-14T06:18:51;6.83;;;3.07;;
13327;SDS011;6733;51.044;3.746;2023-03-14T06:21:18;7.83;;;3.40;;
13327;SDS011;6733;51.044;3.746;2023-03-14T06:23:45;6.00;;;3.20;;
13327;SDS011;6733;51.044;3.746;2023-03-14T06:26:11;7.27;;;3.00;;
13327;SDS011;6733;51.044;3.746;2023-03-14T06:28:37;3.53;;;2.50;;
13327;SDS011;6733;51.044;3.746;2023-03-14T06:31:04;5.47;;;3.17;;
13327;SDS011;6733;51.044;3.746;2023-03-14T06:33:31;7.43;;;3.00;;
13327;SDS011;6733;51.044;3.746;2023-03-14T06:35:57;5.73;;;3.00;;
13327;SDS011;6733;51.044;3.746;2023-03-14T06:38:23;7.97;;;3.70;;
13327;SDS011;6733;51.044;3.746;2023-03-14T06:40:49;7.10;;;3.70;;
13327;SDS011;6733;51.044;3.746;2023-03-14T06:43:15;8.53;;;4.30;;
13327;SDS011;6733;51.044;3.746;2023-03-14T06:45:41;9.67;;;4.50;;
13327;SDS011;6733;51.044;3.746;2023-03-14T06:48:08;9.90;;;4.07;;
13327;SDS011;6733;51.044;3.746;2023-03-14T06:50:34;9.33;;;4.50;;
13327;SDS011;6733;51.044;3.746;2023-03-14T06:53:01;9.23;;;4.50;;
13327;SDS011;6733;51.044;3.746;2023-03-14T06:55:27;8.57;;;4.90;;
13327;SDS011;6733;51.044;3.746;2023-03-14T06:57:53;11.80;;;4.80;;
13327;SDS011;6733;51.044;3.746;2023-03-14T07:00:19;10.10;;;5.07;;
13327;SDS011;6733;51.044;3.746;2023-03-14T07:02:45;12.57;;;5.93;;
13327;SDS011;6733;51.044;3.746;2023-03-14T07:05:12;13.33;;;6.30;;
13327;SDS011;6733;51.044;3.746;2023-03-14T07:07:38;15.50;;;6.93;;
13327;SDS011;6733;51.044;3.746;2023-03-14T07:10:04;13.47;;;6.33;;
13327;SDS011;6733;51.044;3.746;2023-03-14T07:12:31;11.23;;;7.30;;
13327;SDS011;6733;51.044;3.746;2023-03-14T07:14:57;12.10;;;6.73;;
13327;SDS011;6733;51.044;3.746;2023-03-14T07:17:23;13.53;;;6.13;;
13327;SDS011;6733;51.044;3.746;2023-03-14T07:19:49;13.43;;;5.87;;
13327;SDS011;6733;51.044;3.746;2023-03-14T07:22:15;8.57;;;5.70;;
13327;SDS011;6733;51.044;3.746;2023-03-14T07:24:41;11.67;;;6.20;;
13327;SDS011;6733;51.044;3.746;2023-03-14T07:27:08;13.33;;;5.70;;
13327;SDS011;6733;51.044;3.746;2023-03-14T07:29:34;19.67;;;6.20;;
13327;SDS011;6733;51.044;3.746;2023-03-14T07:32:00;9.77;;;6.10;;
13327;SDS011;6733;51.044;3.746;2023-03-14T07:34:26;12.73;;;6.43;;
13327;SDS011;6733;51.044;3.746;2023-03-14T07:36:52;12.30;;;5.60;;
13327;SDS011;6733;51.044;3.746;2023-03-14T07:39:18;9.27;;;5.40;;
13327;SDS011;6733;51.044;3.746;2023-03-14T07:41:44;10.90;;;4.40;;
13327;SDS011;6733;51.044;3.746;2023-03-14T07:44:10;8.67;;;4.00;;
13327;SDS011;6733;51.044;3.746;2023-03-14T07:46:37;7.77;;;4.50;;
13327;SDS011;6733;51.044;3.746;2023-03-14T07:49:03;12.57;;;4.73;;
13327;SDS011;6733;51.044;3.746;2023-03-14T07:51:29;10.57;;;4.70;;
13327;SDS011;6733;51.044;3.746;2023-03-14T07:53:55;10.13;;;4.80;;
13327;SDS011;6733;51.044;3.746;2023-03-14T07:56:21;7.13;;;4.10;;
13327;SDS011;6733;51.044;3.746;2023-03-14T07:58:47;11.63;;;4.73;;
13327;SDS011;6733;51.044;3.746;2023-03-14T08:01:13;9.97;;;4.30;;
13327;SDS011;6733;51.044;3.746;2023-03-14T08:03:40;11.10;;;3.90;;
13327;SDS011;6733;51.044;3.746;2023-03-14T08:06:06;5.97;;;4.33;;
13327;SDS011;6733;51.044;3.746;2023-03-14T08:08:32;8.33;;;3.87;;
13327;SDS011;6733;51.044;3.746;2023-03-14T08:11:05;8.60;;;4.00;;
13327;SDS011;6733;51.044;3.746;2023-03-14T08:13:34;9.10;;;4.43;;
13327;SDS011;6733;51.044;3.746;2023-03-14T08:16:01;6.70;;;4.00;;
13327;SDS011;6733;51.044;3.746;2023-03-14T08:18:27;7.37;;;4.90;;
13327;SDS011;6733;51.044;3.746;2023-03-14T08:20:54;6.50;;;4.97;;
13327;SDS011;6733;51.044;3.746;2023-03-14T08:23:20;8.37;;;5.40;;
13327;SDS011;6733;51.044;3.746;2023-03-14T08:25:48;8.53;;;4.37;;
13327;SDS011;6733;51.044;3.746;2023-03-14T08:28:16;7.30;;;4.70;;
13327;SDS011;6733;51.044;3.746;2023-03-14T08:30:42;6.13;;;4.70;;
13327;SDS011;6733;51.044;3.746;2023-03-14T08:33:09;11.00;;;6.00;;
13327;SDS011;6733;51.044;3.746;2023-03-14T08:35:35;10.27;;;4.97;;
13327;SDS011;6733;51.044;3.746;2023-03-14T08:38:03;6.57;;;3.83;;
13327;SDS011;6733;51.044;3.746;2023-03-14T08:40:29;7.90;;;4.60;;
13327;SDS011;6733;51.044;3.746;2023-03-14T08:42:55;6.97;;;4.70;;
13327;SDS011;6733;51.044;3.746;2023-03-14T08:45:21;8.20;;;4.50;;
13327;SDS011;6733;51.044;3.746;2023-03-14T08:47:49;8.93;;;4.30;;
13327;SDS011;6733;51.044;3.746;2023-03-14T08:50:15;12.37;;;4.60;;
13327;SDS011;6733;51.044;3.746;2023-03-14T08:52:41;6.17;;;4.10;;
13327;SDS011;6733;51.044;3.746;2023-03-14T08:55:08;11.50;;;4.87;;
13327;SDS011;6733;51.044;3.746;2023-03-14T08:57:34;8.90;;;4.20;;
13327;SDS011;6733;51.044;3.746;2023-03-14T09:00:02;8.50;;;4.53;;
13327;SDS011;6733;51.044;3.746;2023-03-14T09:02:34;9.50;;;3.70;;
13327;SDS011;6733;51.044;3.746;2023-03-14T09:05:00;9.23;;;4.00;;
13327;SDS011;6733;51.044;3.746;2023-03-14T09:07:26;9.97;;;4.37;;
13327;SDS011;6733;51.044;3.746;2023-03-14T09:09:52;10.20;;;4.17;;
13327;SDS011;6733;51.044;3.746;2023-03-14T09:12:18;16.03;;;8.90;;
13327;SDS011;6733;51.044;3.746;2023-03-14T09:14:44;12.33;;;5.23;;
13327;SDS011;6733;51.044;3.746;2023-03-14T09:17:10;11.67;;;5.30;;
13327;SDS011;6733;51.044;3.746;2023-03-14T09:19:36;15.43;;;4.50;;
13327;SDS011;6733;51.044;3.746;2023-03-14T09:22:03;15.27;;;4.50;;
13327;SDS011;6733;51.044;3.746;2023-03-14T09:24:29;17.53;;;5.23;;
13327;SDS011;6733;51.044;3.746;2023-03-14T09:26:55;18.80;;;4.20;;
13327;SDS011;6733;51.044;3.746;2023-03-14T09:29:24;12.07;;;3.70;;
13327;SDS011;6733;51.044;3.746;2023-03-14T09:31:50;11.20;;;4.13;;
13327;SDS011;6733;51.044;3.746;2023-03-14T09:34:16;8.73;;;3.67;;
13327;SDS011;6733;51.044;3.746;2023-03-14T09:36:43;6.70;;;3.27;;
13327;SDS011;6733;51.044;3.746;2023-03-14T09:39:10;13.07;;;4.13;;
13327;SDS011;6733;51.044;3.746;2023-03-14T09:41:40;10.83;;;4.13;;
13327;SDS011;6733;51.044;3.746;2023-03-14T09:46:44;7.40;;;3.20;;
13327;SDS011;6733;51.044;3.746;2023-03-14T09:49:25;6.50;;;3.03;;
13327;SDS011;6733;51.044;3.746;2023-03-14T09:51:55;8.27;;;3.80;;
13327;SDS011;6733;51.044;3.746;2023-03-14T09:56:58;7.30;;;2.63;;
13327;SDS011;6733;51.044;3.746;2023-03-14T09:59:25;7.57;;;2.60;;
13327;SDS011;6733;51.044;3.746;2023-03-14T10:01:52;5.30;;;2.03;;
13327;SDS011;6733;51.044;3.746;2023-03-14T10:04:21;5.10;;;2.43;;
13327;SDS011;6733;51.044;3.746;2023-03-14T10:06:50;4.50;;;2.17;;
13327;SDS011;6733;51.044;3.746;2023-03-14T10:09:19;6.07;;;2.47;;
13327;SDS011;6733;51.044;3.746;2023-03-14T10:11:54;6.13;;;2.90;;
13327;SDS011;6733;51.044;3.746;2023-03-14T10:14:29;7.27;;;2.50;;
13327;SDS011;6733;51.044;3.746;2023-03-14T10:17:04;3.67;;;1.90;;
13327;SDS011;6733;51.044;3.746;2023-03-14T10:19:35;5.43;;;1.63;;
13327;SDS011;6733;51.044;3.746;2023-03-14T10:22:03;2.07;;;1.80;;
13327;SDS011;6733;51.044;3.746;2023-03-14T10:24:31;3.77;;;1.73;;
13327;SDS011;6733;51.044;3.746;2023-03-14T10:27:00;7.90;;;1.70;;
13327;SDS011;6733;51.044;3.746;2023-03-14T10:29:32;6.93;;;2.00;;
13327;SDS011;6733;51.044;3.746;2023-03-14T10:32:00;5.30;;;2.13;;
13327;SDS011;6733;51.044;3.746;2023-03-14T10:34:35;7.23;;;1.90;;
13327;SDS011;6733;51.044;3.746;2023-03-14T10:37:06;6.80;;;2.33;;
13327;SDS011;6733;51.044;3.746;2023-03-14T10:39:46;6.67;;;2.00;;
13327;SDS011;6733;51.044;3.746;2023-03-14T10:42:19;5.60;;;2.67;;
13327;SDS011;6733;51.044;3.746;2023-03-14T10:44:53;5.17;;;2.00;;
13327;SDS011;6733;51.044;3.746;2023-03-14T10:47:22;4.73;;;2.10;;
13327;SDS011;6733;51.044;3.746;2023-03-14T10:49:49;5.47;;;2.63;;
13327;SDS011;6733;51.044;3.746;2023-03-14T10:52:21;6.90;;;2.13;;
13327;SDS011;6733;51.044;3.746;2023-03-14T10:54:54;7.20;;;2.63;;
13327;SDS011;6733;51.044;3.746;2023-03-14T10:57:24;5.30;;;2.50;;
13327;SDS011;6733;51.044;3.746;2023-03-14T10:59:51;7.80;;;2.37;;
13327;SDS011;6733;51.044;3.746;2023-03-14T11:05:13;7.57;;;2.60;;
13327;SDS011;6733;51.044;3.746;2023-03-14T11:08:07;5.30;;;2.10;;
13327;SDS011;6733;51.044;3.746;2023-03-14T11:10:38;9.43;;;2.47;;
13327;SDS011;6733;51.044;3.746;2023-03-14T11:18:45;7.53;;;2.43;;
13327;SDS011;6733;51.044;3.746;2023-03-14T11:26:52;5.03;;;2.43;;
13327;SDS011;6733;51.044;3.746;2023-03-14T11:31:57;4.17;;;2.30;;
13327;SDS011;6733;51.044;3.746;2023-03-14T11:34:28;6.73;;;2.67;;
13327;SDS011;6733;51.044;3.746;2023-03-14T11:37:00;7.80;;;2.57;;
13327;SDS011;6733;51.044;3.746;2023-03-14T11:39:36;5.73;;;2.03;;
13327;SDS011;6733;51.044;3.746;2023-03-14T11:42:13;6.03;;;2.63;;
13327;SDS011;6733;51.044;3.746;2023-03-14T11:44:43;6.23;;;2.77;;
13327;SDS011;6733;51.044;3.746;2023-03-14T11:47:25;7.63;;;3.30;;
13327;SDS011;6733;51.044;3.746;2023-03-14T11:50:07;7.97;;;2.67;;
13327;SDS011;6733;51.044;3.746;2023-03-14T11:53:50;11.87;;;3.70;;
13327;SDS011;6733;51.044;3.746;2023-03-14T11:56:36;12.37;;;4.27;;
13327;SDS011;6733;51.044;3.746;2023-03-14T11:59:12;15.03;;;4.80;;
13327;SDS011;6733;51.044;3.746;2023-03-14T12:01:52;21.90;;;4.03;;
13327;SDS011;6733;51.044;3.746;2023-03-14T12:04:40;11.97;;;3.93;;
13327;SDS011;6733;51.044;3.746;2023-03-14T12:07:20;15.47;;;4.20;;
13327;SDS011;6733;51.044;3.746;2023-03-14T12:09:52;12.10;;;4.17;;
13327;SDS011;6733;51.044;3.746;2023-03-14T12:12:20;17.70;;;4.67;;
13327;SDS011;6733;51.044;3.746;2023-03-14T12:15:15;14.30;;;3.37;;
13327;SDS011;6733;51.044;3.746;2023-03-14T12:17:54;15.20;;;3.83;;
13327;SDS011;6733;51.044;3.746;2023-03-14T12:20:24;18.43;;;4.60;;
13327;SDS011;6733;51.044;3.746;2023-03-14T12:22:57;13.17;;;3.37;;
13327;SDS011;6733;51.044;3.746;2023-03-14T12:25:30;12.87;;;3.40;;
13327;SDS011;6733;51.044;3.746;2023-03-14T12:30:39;17.03;;;3.40;;
13327;SDS011;6733;51.044;3.746;2023-03-14T12:38:29;15.63;;;4.20;;
13327;SDS011;6733;51.044;3.746;2023-03-14T12:41:12;14.80;;;5.10;;
13327;SDS011;6733;51.044;3.746;2023-03-14T12:43:40;18.47;;;5.63;;
13327;SDS011;6733;51.044;3.746;2023-03-14T12:49:10;21.03;;;5.53;;
13327;SDS011;6733;51.044;3.746;2023-03-14T12:51:36;18.47;;;4.30;;
13327;SDS011;6733;51.044;3.746;2023-03-14T13:01:55;18.17;;;6.13;;
13327;SDS011;6733;51.044;3.746;2023-03-14T13:04:29;12.50;;;4.67;;
13327;SDS011;6733;51.044;3.746;2023-03-14T13:07:34;16.07;;;4.57;;
13327;SDS011;6733;51.044;3.746;2023-03-14T13:10:38;13.57;;;3.70;;
13327;SDS011;6733;51.044;3.746;2023-03-14T13:13:14;11.77;;;4.27;;
13327;SDS011;6733;51.044;3.746;2023-03-14T13:15:46;11.63;;;4.27;;
13327;SDS011;6733;51.044;3.746;2023-03-14T13:18:17;11.17;;;3.50;;
13327;SDS011;6733;51.044;3.746;2023-03-14T13:20:53;13.43;;;4.07;;
13327;SDS011;6733;51.044;3.746;2023-03-14T13:23:23;12.00;;;3.63;;
13327;SDS011;6733;51.044;3.746;2023-03-14T13:25:51;14.30;;;3.03;;
13327;SDS011;6733;51.044;3.746;2023-03-14T13:28:19;12.27;;;3.30;;
13327;SDS011;6733;51.044;3.746;2023-03-14T13:30:49;11.70;;;3.60;;
13327;SDS011;6733;51.044;3.746;2023-03-14T13:33:21;16.00;;;3.70;;
13327;SDS011;6733;51.044;3.746;2023-03-14T13:35:49;13.53;;;5.27;;
13327;SDS011;6733;51.044;3.746;2023-03-14T13:38:31;18.57;;;4.23;;
13327;SDS011;6733;51.044;3.746;2023-03-14T13:41:00;11.47;;;3.70;;
13327;SDS011;6733;51.044;3.746;2023-03-14T13:43:33;15.43;;;3.87;;
13327;SDS011;6733;51.044;3.746;2023-03-14T13:49:02;17.03;;;4.10;;
13327;SDS011;6733;51.044;3.746;2023-03-14T13:51:36;12.10;;;3.73;;
13327;SDS011;6733;51.044;3.746;2023-03-14T13:54:11;8.77;;;3.00;;
13327;SDS011;6733;51.044;3.746;2023-03-14T13:56:39;9.63;;;2.67;;
13327;SDS011;6733;51.044;3.746;2023-03-14T13:59:25;11.30;;;3.00;;
13327;SDS011;6733;51.044;3.746;2023-03-14T14:01:53;9.87;;;3.20;;
13327;SDS011;6733;51.044;3.746;2023-03-14T14:04:23;11.97;;;3.17;;
13327;SDS011;6733;51.044;3.746;2023-03-14T14:06:58;6.33;;;2.87;;
13327;SDS011;6733;51.044;3.746;2023-03-14T14:09:29;7.27;;;3.07;;
13327;SDS011;6733;51.044;3.746;2023-03-14T14:12:06;4.23;;;1.73;;
13327;SDS011;6733;51.044;3.746;2023-03-14T14:14:40;7.03;;;2.23;;
13327;SDS011;6733;51.044;3.746;2023-03-14T14:17:10;7.10;;;1.80;;
13327;SDS011;6733;51.044;3.746;2023-03-14T14:19:38;4.50;;;1.50;;
13327;SDS011;6733;51.044;3.746;2023-03-14T14:22:08;5.53;;;2.07;;
13327;SDS011;6733;51.044;3.746;2023-03-14T14:24:36;8.63;;;2.17;;
13327;SDS011;6733;51.044;3.746;2023-03-14T14:29:38;4.93;;;2.10;;
13327;SDS011;6733;51.044;3.746;2023-03-14T14:34:46;6.03;;;2.70;;
13327;SDS011;6733;51.044;3.746;2023-03-14T14:39:50;3.63;;;2.20;;
13327;SDS011;6733;51.044;3.746;2023-03-14T14:42:19;2.37;;;1.60;;
13327;SDS011;6733;51.044;3.746;2023-03-14T14:44:47;3.13;;;2.00;;
13327;SDS011;6733;51.044;3.746;2023-03-14T14:47:20;3.40;;;1.83;;
13327;SDS011;6733;51.044;3.746;2023-03-14T14:49:49;2.63;;;1.77;;
13327;SDS011;6733;51.044;3.746;2023-03-14T14:52:17;4.20;;;1.93;;
13327;SDS011;6733;51.044;3.746;2023-03-14T14:54:46;5.43;;;2.70;;
13327;SDS011;6733;51.044;3.746;2023-03-14T14:57:17;6.87;;;3.20;;
13327;SDS011;6733;51.044;3.746;2023-03-14T14:59:47;8.53;;;2.40;;
13327;SDS011;6733;51.044;3.746;2023-03-14T15:02:58;4.77;;;2.10;;
13327;SDS011;6733;51.044;3.746;2023-03-14T15:05:19;4.90;;;2.03;;
13327;SDS011;6733;51.044;3.746;2023-03-14T15:07:47;6.20;;;2.20;;
13327;SDS011;6733;51.044;3.746;2023-03-14T15:10:14;4.67;;;2.90;;
13327;SDS011;6733;51.044;3.746;2023-03-14T15:12:43;5.07;;;2.10;;
13327;SDS011;6733;51.044;3.746;2023-03-14T15:15:09;5.27;;;2.23;;
13327;SDS011;6733;51.044;3.746;2023-03-14T15:17:37;11.07;;;3.63;;
13327;SDS011;6733;51.044;3.746;2023-03-14T15:20:04;9.30;;;3.87;;
13327;SDS011;6733;51.044;3.746;2023-03-14T15:22:35;7.63;;;3.00;;
13327;SDS011;6733;51.044;3.746;2023-03-14T15:25:01;10.37;;;3.13;;
13327;SDS011;6733;51.044;3.746;2023-03-14T15:27:28;5.47;;;2.67;;
13327;SDS011;6733;51.044;3.746;2023-03-14T15:29:56;7.93;;;2.70;;
13327;SDS011;6733;51.044;3.746;2023-03-14T15:32:22;7.87;;;3.77;;
13327;SDS011;6733;51.044;3.746;2023-03-14T15:34:48;10.77;;;3.37;;
13327;SDS011;6733;51.044;3.746;2023-03-14T15:37:15;9.50;;;3.20;;
13327;SDS011;6733;51.044;3.746;2023-03-14T15:39:42;16.93;;;5.30;;
13327;SDS011;6733;51.044;3.746;2023-03-14T15:42:08;13.43;;;3.40;;
13327;SDS011;6733;51.044;3.746;2023-03-14T15:44:35;16.23;;;3.43;;
13327;SDS011;6733;51.044;3.746;2023-03-14T15:47:01;10.33;;;3.10;;
13327;SDS011;6733;51.044;3.746;2023-03-14T15:49:27;8.53;;;2.70;;
13327;SDS011;6733;51.044;3.746;2023-03-14T15:51:54;12.70;;;2.87;;
13327;SDS011;6733;51.044;3.746;2023-03-14T15:54:21;11.47;;;3.63;;
13327;SDS011;6733;51.044;3.746;2023-03-14T15:56:48;9.50;;;3.17;;
13327;SDS011;6733;51.044;3.746;2023-03-14T15:59:14;14.63;;;4.03;;
13327;SDS011;6733;51.044;3.746;2023-03-14T16:01:40;12.90;;;3.60;;
13327;SDS011;6733;51.044;3.746;2023-03-14T16:04:06;10.20;;;3.00;;